Millersville, Pennsylvania
Current Conditions -  °F | °C
As of 10:53 PM on Wednesday 28 Jan 2015 (Local Time) from KLNS Reporting Station
Clear Clear  
Wind Chill: 10°   Ceiling: Unl
Heat Index: 18°   Visibility: 10mi
Dew Point:   Wind: 6mph
Humidity: 54%   Direction: 280°W
Pressure: 30.3"   Gusts: NA
Location:  40°N, 76.36°W
Report Text: KLNS 290353Z AUTO 28005KT 10SM CLR M08/M16 A3030 RMK AO2 SLP268 T10781156
Loading
Personal Weather Stations






























Interactive Weather Map New forecast layout! Learn more

10-Day Weather Forecast

Advertisements
Track Severe Weather on mobile